sensor_id;sensor_type;location;lat;lon;timestamp;temperature;humidity
11573;DHT22;5842;52.426;4.886;2022-10-03T00:02:02;9.10;99.90
11573;DHT22;5842;52.426;4.886;2022-10-03T00:04:58;9.00;99.90
11573;DHT22;5842;52.426;4.886;2022-10-03T00:07:37;9.00;99.90
11573;DHT22;5842;52.426;4.886;2022-10-03T00:10:19;8.90;99.90
11573;DHT22;5842;52.426;4.886;2022-10-03T00:13:06;8.90;99.90
11573;DHT22;5842;52.426;4.886;2022-10-03T00:15:40;8.90;99.90
11573;DHT22;5842;52.426;4.886;2022-10-03T00:18:21;8.90;99.90
11573;DHT22;5842;52.426;4.886;2022-10-03T00:21:02;8.90;99.90
11573;DHT22;5842;52.426;4.886;2022-10-03T00:23:39;8.90;99.90
11573;DHT22;5842;52.426;4.886;2022-10-03T00:26:16;8.80;99.90
11573;DHT22;5842;52.426;4.886;2022-10-03T00:29:16;8.80;99.90
11573;DHT22;5842;52.426;4.886;2022-10-03T00:31:54;8.80;99.90
11573;DHT22;5842;52.426;4.886;2022-10-03T00:34:29;8.70;99.90
11573;DHT22;5842;52.426;4.886;2022-10-03T00:37:23;8.70;99.90
11573;DHT22;5842;52.426;4.886;2022-10-03T00:40:05;8.70;99.90
11573;DHT22;5842;52.426;4.886;2022-10-03T00:43:19;8.70;99.90
11573;DHT22;5842;52.426;4.886;2022-10-03T00:46:20;8.70;99.90
11573;DHT22;5842;52.426;4.886;2022-10-03T00:49:10;8.70;99.90
11573;DHT22;5842;52.426;4.886;2022-10-03T00:51:54;8.80;99.90
11573;DHT22;5842;52.426;4.886;2022-10-03T00:54:46;8.90;99.90
11573;DHT22;5842;52.426;4.886;2022-10-03T00:57:41;9.00;99.90
11573;DHT22;5842;52.426;4.886;2022-10-03T01:00:17;9.10;99.90
11573;DHT22;5842;52.426;4.886;2022-10-03T01:03:21;9.20;99.90
11573;DHT22;5842;52.426;4.886;2022-10-03T01:06:05;9.20;99.90
11573;DHT22;5842;52.426;4.886;2022-10-03T01:09:04;9.30;99.90
11573;DHT22;5842;52.426;4.886;2022-10-03T01:11:44;9.30;99.90
11573;DHT22;5842;52.426;4.886;2022-10-03T01:14:26;9.30;99.90
11573;DHT22;5842;52.426;4.886;2022-10-03T01:17:08;9.30;99.90
11573;DHT22;5842;52.426;4.886;2022-10-03T01:20:02;9.20;99.90
11573;DHT22;5842;52.426;4.886;2022-10-03T01:25:35;9.10;99.90
11573;DHT22;5842;52.426;4.886;2022-10-03T01:28:16;9.00;99.90
11573;DHT22;5842;52.426;4.886;2022-10-03T01:31:06;9.00;99.90
11573;DHT22;5842;52.426;4.886;2022-10-03T01:33:38;8.90;99.90
11573;DHT22;5842;52.426;4.886;2022-10-03T01:36:13;8.90;99.90
11573;DHT22;5842;52.426;4.886;2022-10-03T01:38:46;8.90;99.90
11573;DHT22;5842;52.426;4.886;2022-10-03T01:41:25;8.80;99.90
11573;DHT22;5842;52.426;4.886;2022-10-03T01:43:58;8.80;99.90
11573;DHT22;5842;52.426;4.886;2022-10-03T01:46:36;8.70;99.90
11573;DHT22;5842;52.426;4.886;2022-10-03T01:49:10;8.80;99.90
11573;DHT22;5842;52.426;4.886;2022-10-03T01:51:44;8.70;99.90
11573;DHT22;5842;52.426;4.886;2022-10-03T01:54:19;8.70;99.90
11573;DHT22;5842;52.426;4.886;2022-10-03T01:56:54;8.70;99.90
11573;DHT22;5842;52.426;4.886;2022-10-03T01:59:32;8.60;99.90
11573;DHT22;5842;52.426;4.886;2022-10-03T02:02:07;8.60;99.90
11573;DHT22;5842;52.426;4.886;2022-10-03T02:04:43;8.60;99.90
11573;DHT22;5842;52.426;4.886;2022-10-03T02:07:16;8.60;99.90
11573;DHT22;5842;52.426;4.886;2022-10-03T02:10:02;8.60;99.90
11573;DHT22;5842;52.426;4.886;2022-10-03T02:12:35;8.50;99.90
11573;DHT22;5842;52.426;4.886;2022-10-03T02:15:14;8.60;99.90
11573;DHT22;5842;52.426;4.886;2022-10-03T02:17:49;8.60;99.90
11573;DHT22;5842;52.426;4.886;2022-10-03T02:20:25;8.50;99.90
11573;DHT22;5842;52.426;4.886;2022-10-03T02:22:55;8.50;99.90
11573;DHT22;5842;52.426;4.886;2022-10-03T02:25:26;8.50;99.90
11573;DHT22;5842;52.426;4.886;2022-10-03T02:31:13;8.40;99.90
11573;DHT22;5842;52.426;4.886;2022-10-03T02:34:05;8.40;99.90
11573;DHT22;5842;52.426;4.886;2022-10-03T02:39:59;8.40;99.90
11573;DHT22;5842;52.426;4.886;2022-10-03T02:42:55;8.30;99.90
11573;DHT22;5842;52.426;4.886;2022-10-03T02:52:03;8.20;99.90
11573;DHT22;5842;52.426;4.886;2022-10-03T02:58:08;8.20;99.90
11573;DHT22;5842;52.426;4.886;2022-10-03T03:01:16;8.20;99.90
11573;DHT22;5842;52.426;4.886;2022-10-03T03:04:07;8.20;99.90
11573;DHT22;5842;52.426;4.886;2022-10-03T03:07:16;8.20;99.90
11573;DHT22;5842;52.426;4.886;2022-10-03T03:19:42;8.20;99.90
11573;DHT22;5842;52.426;4.886;2022-10-03T03:22:25;8.10;99.90
11573;DHT22;5842;52.426;4.886;2022-10-03T03:27:57;8.10;99.90
11573;DHT22;5842;52.426;4.886;2022-10-03T03:30:35;8.20;99.90
11573;DHT22;5842;52.426;4.886;2022-10-03T03:33:10;8.20;99.90
11573;DHT22;5842;52.426;4.886;2022-10-03T03:35:50;8.30;99.90
11573;DHT22;5842;52.426;4.886;2022-10-03T03:38:28;8.40;99.90
11573;DHT22;5842;52.426;4.886;2022-10-03T03:41:08;8.40;99.90
11573;DHT22;5842;52.426;4.886;2022-10-03T03:43:57;8.40;99.90
11573;DHT22;5842;52.426;4.886;2022-10-03T03:46:36;8.40;99.90
11573;DHT22;5842;52.426;4.886;2022-10-03T03:49:17;8.30;99.90
11573;DHT22;5842;52.426;4.886;2022-10-03T03:52:06;8.30;99.90
11573;DHT22;5842;52.426;4.886;2022-10-03T03:54:56;8.30;99.90
11573;DHT22;5842;52.426;4.886;2022-10-03T03:57:50;8.30;99.90
11573;DHT22;5842;52.426;4.886;2022-10-03T04:00:30;8.30;99.90
11573;DHT22;5842;52.426;4.886;2022-10-03T04:03:19;8.20;99.90
11573;DHT22;5842;52.426;4.886;2022-10-03T04:06:09;8.20;99.90
11573;DHT22;5842;52.426;4.886;2022-10-03T04:11:36;8.30;99.90
11573;DHT22;5842;52.426;4.886;2022-10-03T04:17:32;8.30;99.90
11573;DHT22;5842;52.426;4.886;2022-10-03T04:20:32;8.40;99.90
11573;DHT22;5842;52.426;4.886;2022-10-03T04:23:15;8.50;99.90
11573;DHT22;5842;52.426;4.886;2022-10-03T04:26:04;8.70;99.90
11573;DHT22;5842;52.426;4.886;2022-10-03T04:28:52;8.80;99.90
11573;DHT22;5842;52.426;4.886;2022-10-03T04:31:31;9.00;99.90
11573;DHT22;5842;52.426;4.886;2022-10-03T04:34:19;9.00;99.90
11573;DHT22;5842;52.426;4.886;2022-10-03T04:37:04;9.00;99.90
11573;DHT22;5842;52.426;4.886;2022-10-03T04:39:40;9.00;99.90
11573;DHT22;5842;52.426;4.886;2022-10-03T04:42:20;9.00;99.90
11573;DHT22;5842;52.426;4.886;2022-10-03T04:45:15;8.90;99.90
11573;DHT22;5842;52.426;4.886;2022-10-03T04:47:47;8.90;99.90
11573;DHT22;5842;52.426;4.886;2022-10-03T04:50:25;8.80;99.90
11573;DHT22;5842;52.426;4.886;2022-10-03T04:53:07;8.80;99.90
11573;DHT22;5842;52.426;4.886;2022-10-03T04:55:41;8.70;99.90
11573;DHT22;5842;52.426;4.886;2022-10-03T04:58:29;8.70;99.90
11573;DHT22;5842;52.426;4.886;2022-10-03T05:01:09;8.70;99.90
11573;DHT22;5842;52.426;4.886;2022-10-03T05:03:44;8.70;99.90
11573;DHT22;5842;52.426;4.886;2022-10-03T05:06:28;8.70;99.90
11573;DHT22;5842;52.426;4.886;2022-10-03T05:09:00;8.90;99.90
11573;DHT22;5842;52.426;4.886;2022-10-03T05:11:40;8.90;99.90
11573;DHT22;5842;52.426;4.886;2022-10-03T05:14:19;9.00;99.90
11573;DHT22;5842;52.426;4.886;2022-10-03T05:16:54;9.10;99.90
11573;DHT22;5842;52.426;4.886;2022-10-03T05:19:45;9.10;99.90
11573;DHT22;5842;52.426;4.886;2022-10-03T05:22:36;9.20;99.90
11573;DHT22;5842;52.426;4.886;2022-10-03T05:28:03;9.30;99.90
11573;DHT22;5842;52.426;4.886;2022-10-03T05:30:41;9.40;99.90
11573;DHT22;5842;52.426;4.886;2022-10-03T05:33:14;9.40;99.90
11573;DHT22;5842;52.426;4.886;2022-10-03T05:35:53;9.50;99.90
11573;DHT22;5842;52.426;4.886;2022-10-03T05:38:45;9.60;99.90
11573;DHT22;5842;52.426;4.886;2022-10-03T05:41:22;9.70;99.90
11573;DHT22;5842;52.426;4.886;2022-10-03T05:44:00;9.70;99.90
11573;DHT22;5842;52.426;4.886;2022-10-03T05:47:01;9.80;99.90
11573;DHT22;5842;52.426;4.886;2022-10-03T05:50:14;9.90;99.90
11573;DHT22;5842;52.426;4.886;2022-10-03T05:52:59;9.90;99.90
11573;DHT22;5842;52.426;4.886;2022-10-03T05:55:36;10.00;99.90
11573;DHT22;5842;52.426;4.886;2022-10-03T05:58:30;10.10;99.90
11573;DHT22;5842;52.426;4.886;2022-10-03T06:04:28;10.20;99.90
11573;DHT22;5842;52.426;4.886;2022-10-03T06:07:13;10.20;99.90
11573;DHT22;5842;52.426;4.886;2022-10-03T06:13:13;10.30;99.90
11573;DHT22;5842;52.426;4.886;2022-10-03T06:15:53;10.40;99.90
11573;DHT22;5842;52.426;4.886;2022-10-03T06:18:45;10.40;99.90
11573;DHT22;5842;52.426;4.886;2022-10-03T06:30:32;10.70;99.90
11573;DHT22;5842;52.426;4.886;2022-10-03T06:33:57;10.80;99.90
11573;DHT22;5842;52.426;4.886;2022-10-03T06:36:42;10.90;99.90
11573;DHT22;5842;52.426;4.886;2022-10-03T06:42:34;11.00;99.90
11573;DHT22;5842;52.426;4.886;2022-10-03T06:49:06;11.20;99.90
11573;DHT22;5842;52.426;4.886;2022-10-03T06:51:53;11.30;99.90
11573;DHT22;5842;52.426;4.886;2022-10-03T06:54:49;11.40;99.90
11573;DHT22;5842;52.426;4.886;2022-10-03T06:57:43;11.50;99.90
11573;DHT22;5842;52.426;4.886;2022-10-03T07:00:17;11.60;99.90
11573;DHT22;5842;52.426;4.886;2022-10-03T07:06:12;11.80;99.90
11573;DHT22;5842;52.426;4.886;2022-10-03T07:12:06;12.10;99.90
11573;DHT22;5842;52.426;4.886;2022-10-03T07:17:57;12.70;99.90
11573;DHT22;5842;52.426;4.886;2022-10-03T07:41:55;14.30;99.90
11573;DHT22;5842;52.426;4.886;2022-10-03T07:44:54;14.40;99.90
11573;DHT22;5842;52.426;4.886;2022-10-03T07:48:04;14.40;99.90
11573;DHT22;5842;52.426;4.886;2022-10-03T07:51:13;14.50;99.90
11573;DHT22;5842;52.426;4.886;2022-10-03T07:56:57;14.40;99.90
11573;DHT22;5842;52.426;4.886;2022-10-03T08:00:04;14.40;99.90
11573;DHT22;5842;52.426;4.886;2022-10-03T08:03:03;14.50;99.90
11573;DHT22;5842;52.426;4.886;2022-10-03T08:05:45;14.60;99.90
11573;DHT22;5842;52.426;4.886;2022-10-03T08:08:36;14.80;99.90
11573;DHT22;5842;52.426;4.886;2022-10-03T08:11:16;14.90;99.90
11573;DHT22;5842;52.426;4.886;2022-10-03T08:19:58;15.40;99.90
11573;DHT22;5842;52.426;4.886;2022-10-03T08:22:40;15.50;99.90
11573;DHT22;5842;52.426;4.886;2022-10-03T08:25:25;15.70;99.90
11573;DHT22;5842;52.426;4.886;2022-10-03T08:30:50;15.90;99.90
11573;DHT22;5842;52.426;4.886;2022-10-03T08:33:52;16.00;99.90
11573;DHT22;5842;52.426;4.886;2022-10-03T08:39:44;16.20;99.90
11573;DHT22;5842;52.426;4.886;2022-10-03T08:42:50;16.40;99.90
11573;DHT22;5842;52.426;4.886;2022-10-03T08:45:46;16.60;99.90
11573;DHT22;5842;52.426;4.886;2022-10-03T08:48:51;16.80;99.90
11573;DHT22;5842;52.426;4.886;2022-10-03T08:51:50;16.90;99.90
11573;DHT22;5842;52.426;4.886;2022-10-03T08:54:44;16.80;99.90
11573;DHT22;5842;52.426;4.886;2022-10-03T08:57:24;16.70;99.90
11573;DHT22;5842;52.426;4.886;2022-10-03T09:00:18;16.70;99.90
11573;DHT22;5842;52.426;4.886;2022-10-03T09:03:25;16.40;99.90
11573;DHT22;5842;52.426;4.886;2022-10-03T09:06:34;16.30;99.90
11573;DHT22;5842;52.426;4.886;2022-10-03T09:12:19;15.90;99.90
11573;DHT22;5842;52.426;4.886;2022-10-03T09:15:06;15.80;99.90
11573;DHT22;5842;52.426;4.886;2022-10-03T09:18:18;15.60;99.90
11573;DHT22;5842;52.426;4.886;2022-10-03T09:24:14;15.70;99.90
11573;DHT22;5842;52.426;4.886;2022-10-03T09:30:18;15.90;99.90
11573;DHT22;5842;52.426;4.886;2022-10-03T09:36:35;16.20;99.90
11573;DHT22;5842;52.426;4.886;2022-10-03T09:39:31;16.60;99.90
11573;DHT22;5842;52.426;4.886;2022-10-03T09:42:28;16.90;99.90
11573;DHT22;5842;52.426;4.886;2022-10-03T09:51:12;17.80;99.90
11573;DHT22;5842;52.426;4.886;2022-10-03T09:57:12;18.40;99.90
11573;DHT22;5842;52.426;4.886;2022-10-03T10:03:02;19.20;99.90
11573;DHT22;5842;52.426;4.886;2022-10-03T10:06:00;19.20;99.90
11573;DHT22;5842;52.426;4.886;2022-10-03T10:23:53;20.50;99.90
11573;DHT22;5842;52.426;4.886;2022-10-03T10:32:40;20.90;99.90
11573;DHT22;5842;52.426;4.886;2022-10-03T10:38:41;20.40;99.90
11573;DHT22;5842;52.426;4.886;2022-10-03T10:48:03;20.10;99.90
11573;DHT22;5842;52.426;4.886;2022-10-03T10:54:16;20.10;99.90
11573;DHT22;5842;52.426;4.886;2022-10-03T10:57:36;20.20;99.90
11573;DHT22;5842;52.426;4.886;2022-10-03T11:00:21;20.10;99.90
11573;DHT22;5842;52.426;4.886;2022-10-03T11:03:36;19.80;99.90
11573;DHT22;5842;52.426;4.886;2022-10-03T11:06:58;19.60;99.90
11573;DHT22;5842;52.426;4.886;2022-10-03T11:10:07;19.40;99.90
11573;DHT22;5842;52.426;4.886;2022-10-03T11:13:31;19.20;99.90
11573;DHT22;5842;52.426;4.886;2022-10-03T11:19:45;19.10;99.90
11573;DHT22;5842;52.426;4.886;2022-10-03T11:26:12;19.00;99.90
11573;DHT22;5842;52.426;4.886;2022-10-03T11:29:15;19.00;99.90
11573;DHT22;5842;52.426;4.886;2022-10-03T11:35:22;19.70;99.90
11573;DHT22;5842;52.426;4.886;2022-10-03T11:37:58;20.10;99.90
11573;DHT22;5842;52.426;4.886;2022-10-03T11:40:51;20.40;99.90
11573;DHT22;5842;52.426;4.886;2022-10-03T11:46:44;21.00;99.90
11573;DHT22;5842;52.426;4.886;2022-10-03T11:52:13;21.20;99.90
11573;DHT22;5842;52.426;4.886;2022-10-03T11:54:46;21.20;99.90
11573;DHT22;5842;52.426;4.886;2022-10-03T11:57:20;21.10;99.90
11573;DHT22;5842;52.426;4.886;2022-10-03T11:59:57;20.90;99.90
11573;DHT22;5842;52.426;4.886;2022-10-03T12:02:54;20.70;99.90
11573;DHT22;5842;52.426;4.886;2022-10-03T12:05:31;20.50;99.90
11573;DHT22;5842;52.426;4.886;2022-10-03T12:08:17;20.40;99.90
11573;DHT22;5842;52.426;4.886;2022-10-03T12:11:06;20.10;99.90
11573;DHT22;5842;52.426;4.886;2022-10-03T12:13:41;20.10;99.90
11573;DHT22;5842;52.426;4.886;2022-10-03T12:16:19;19.90;99.90
11573;DHT22;5842;52.426;4.886;2022-10-03T12:18:53;19.90;99.90
11573;DHT22;5842;52.426;4.886;2022-10-03T12:21:31;19.80;99.90
11573;DHT22;5842;52.426;4.886;2022-10-03T12:24:12;19.80;99.90
11573;DHT22;5842;52.426;4.886;2022-10-03T12:26:52;19.70;99.90
11573;DHT22;5842;52.426;4.886;2022-10-03T12:29:23;19.80;99.90
11573;DHT22;5842;52.426;4.886;2022-10-03T12:32:04;19.90;99.90
11573;DHT22;5842;52.426;4.886;2022-10-03T12:34:38;19.90;99.90
11573;DHT22;5842;52.426;4.886;2022-10-03T12:37:30;19.80;99.90
11573;DHT22;5842;52.426;4.886;2022-10-03T12:40:03;19.80;99.90
11573;DHT22;5842;52.426;4.886;2022-10-03T12:42:38;19.70;99.90
11573;DHT22;5842;52.426;4.886;2022-10-03T12:45:15;19.70;99.90
11573;DHT22;5842;52.426;4.886;2022-10-03T12:47:56;19.60;99.90
11573;DHT22;5842;52.426;4.886;2022-10-03T12:50:36;19.70;99.90
11573;DHT22;5842;52.426;4.886;2022-10-03T12:53:20;19.50;99.90
11573;DHT22;5842;52.426;4.886;2022-10-03T12:56:00;19.60;99.90
11573;DHT22;5842;52.426;4.886;2022-10-03T12:58:37;19.70;99.90
11573;DHT22;5842;52.426;4.886;2022-10-03T13:01:13;19.80;99.90
11573;DHT22;5842;52.426;4.886;2022-10-03T13:03:49;19.80;99.90
11573;DHT22;5842;52.426;4.886;2022-10-03T13:06:25;19.70;99.90
11573;DHT22;5842;52.426;4.886;2022-10-03T13:09:10;19.50;99.90
11573;DHT22;5842;52.426;4.886;2022-10-03T13:11:58;19.30;99.90
11573;DHT22;5842;52.426;4.886;2022-10-03T13:14:40;19.20;99.90
11573;DHT22;5842;52.426;4.886;2022-10-03T13:17:19;19.10;99.90
11573;DHT22;5842;52.426;4.886;2022-10-03T13:19:56;19.10;99.90
11573;DHT22;5842;52.426;4.886;2022-10-03T13:22:32;19.00;99.90
11573;DHT22;5842;52.426;4.886;2022-10-03T13:25:04;18.90;99.90
11573;DHT22;5842;52.426;4.886;2022-10-03T13:27:46;18.70;99.90
11573;DHT22;5842;52.426;4.886;2022-10-03T13:30:19;18.70;99.90
11573;DHT22;5842;52.426;4.886;2022-10-03T13:32:52;18.70;99.90
11573;DHT22;5842;52.426;4.886;2022-10-03T13:35:31;18.60;99.90
11573;DHT22;5842;52.426;4.886;2022-10-03T13:38:50;18.60;99.90
11573;DHT22;5842;52.426;4.886;2022-10-03T13:41:29;18.50;99.90
11573;DHT22;5842;52.426;4.886;2022-10-03T13:44:02;18.50;99.90
11573;DHT22;5842;52.426;4.886;2022-10-03T13:46:41;18.50;99.90
11573;DHT22;5842;52.426;4.886;2022-10-03T13:49:15;18.50;99.90
11573;DHT22;5842;52.426;4.886;2022-10-03T13:51:49;18.50;99.90
11573;DHT22;5842;52.426;4.886;2022-10-03T13:54:30;18.50;99.90
11573;DHT22;5842;52.426;4.886;2022-10-03T13:57:14;18.40;99.90
11573;DHT22;5842;52.426;4.886;2022-10-03T13:59:53;18.30;99.90
11573;DHT22;5842;52.426;4.886;2022-10-03T14:02:41;18.00;99.90
11573;DHT22;5842;52.426;4.886;2022-10-03T14:05:32;17.80;99.90
11573;DHT22;5842;52.426;4.886;2022-10-03T14:08:08;17.70;99.90
11573;DHT22;5842;52.426;4.886;2022-10-03T14:11:07;17.60;99.90
11573;DHT22;5842;52.426;4.886;2022-10-03T14:13:47;17.40;99.90
11573;DHT22;5842;52.426;4.886;2022-10-03T14:16:24;17.40;99.90
11573;DHT22;5842;52.426;4.886;2022-10-03T14:18:59;17.30;99.90
11573;DHT22;5842;52.426;4.886;2022-10-03T14:24:40;17.30;99.90
11573;DHT22;5842;52.426;4.886;2022-10-03T14:27:35;17.20;99.90
11573;DHT22;5842;52.426;4.886;2022-10-03T14:30:04;17.30;99.90
11573;DHT22;5842;52.426;4.886;2022-10-03T14:32:46;17.30;99.90
11573;DHT22;5842;52.426;4.886;2022-10-03T14:35:23;17.40;99.90
11573;DHT22;5842;52.426;4.886;2022-10-03T14:37:57;17.50;99.90
11573;DHT22;5842;52.426;4.886;2022-10-03T14:40:34;17.60;99.90
11573;DHT22;5842;52.426;4.886;2022-10-03T14:43:13;17.70;99.90
11573;DHT22;5842;52.426;4.886;2022-10-03T14:45:49;17.70;99.90
11573;DHT22;5842;52.426;4.886;2022-10-03T14:48:20;17.70;99.90
11573;DHT22;5842;52.426;4.886;2022-10-03T14:50:53;17.80;99.90
11573;DHT22;5842;52.426;4.886;2022-10-03T14:53:24;17.90;99.90
11573;DHT22;5842;52.426;4.886;2022-10-03T14:55:58;18.00;99.90
11573;DHT22;5842;52.426;4.886;2022-10-03T14:58:30;18.20;99.90
11573;DHT22;5842;52.426;4.886;2022-10-03T15:01:09;18.30;99.90
11573;DHT22;5842;52.426;4.886;2022-10-03T15:03:42;18.30;99.90
11573;DHT22;5842;52.426;4.886;2022-10-03T15:06:19;18.40;99.90
11573;DHT22;5842;52.426;4.886;2022-10-03T15:08:50;18.30;99.90
11573;DHT22;5842;52.426;4.886;2022-10-03T15:11:23;18.20;99.90
11573;DHT22;5842;52.426;4.886;2022-10-03T15:13:54;18.10;99.90
11573;DHT22;5842;52.426;4.886;2022-10-03T15:16:23;18.00;99.90
11573;DHT22;5842;52.426;4.886;2022-10-03T15:18:55;17.90;99.90
11573;DHT22;5842;52.426;4.886;2022-10-03T15:21:24;17.80;99.90
11573;DHT22;5842;52.426;4.886;2022-10-03T15:23:55;17.70;99.90
11573;DHT22;5842;52.426;4.886;2022-10-03T15:26:22;17.70;99.90
11573;DHT22;5842;52.426;4.886;2022-10-03T15:28:53;17.60;99.90
11573;DHT22;5842;52.426;4.886;2022-10-03T15:31:31;17.50;99.90
11573;DHT22;5842;52.426;4.886;2022-10-03T15:34:03;17.50;99.90
11573;DHT22;5842;52.426;4.886;2022-10-03T15:36:34;17.40;99.90
11573;DHT22;5842;52.426;4.886;2022-10-03T15:39:05;17.30;99.90
11573;DHT22;5842;52.426;4.886;2022-10-03T15:41:46;17.30;99.90
11573;DHT22;5842;52.426;4.886;2022-10-03T15:44:18;17.30;99.90
11573;DHT22;5842;52.426;4.886;2022-10-03T15:46:50;17.20;99.90
11573;DHT22;5842;52.426;4.886;2022-10-03T15:49:25;17.20;99.90
11573;DHT22;5842;52.426;4.886;2022-10-03T15:51:53;17.30;99.90
11573;DHT22;5842;52.426;4.886;2022-10-03T15:54:22;17.30;99.90
11573;DHT22;5842;52.426;4.886;2022-10-03T15:56:52;17.30;99.90
11573;DHT22;5842;52.426;4.886;2022-10-03T15:59:24;17.10;99.90
11573;DHT22;5842;52.426;4.886;2022-10-03T16:01:53;17.00;99.90
11573;DHT22;5842;52.426;4.886;2022-10-03T16:04:24;16.80;99.90
11573;DHT22;5842;52.426;4.886;2022-10-03T16:06:59;16.60;99.90
11573;DHT22;5842;52.426;4.886;2022-10-03T16:09:33;16.30;99.90
11573;DHT22;5842;52.426;4.886;2022-10-03T16:12:44;16.10;99.90
11573;DHT22;5842;52.426;4.886;2022-10-03T16:15:20;15.90;99.90
11573;DHT22;5842;52.426;4.886;2022-10-03T16:17:51;15.70;99.90
11573;DHT22;5842;52.426;4.886;2022-10-03T16:20:24;15.50;99.90
11573;DHT22;5842;52.426;4.886;2022-10-03T16:22:55;15.40;99.90
11573;DHT22;5842;52.426;4.886;2022-10-03T16:27:55;15.10;99.90
11573;DHT22;5842;52.426;4.886;2022-10-03T16:30:27;15.00;99.90
11573;DHT22;5842;52.426;4.886;2022-10-03T16:33:02;14.90;99.90
11573;DHT22;5842;52.426;4.886;2022-10-03T16:35:35;14.70;99.90
11573;DHT22;5842;52.426;4.886;2022-10-03T16:38:07;14.70;99.90
11573;DHT22;5842;52.426;4.886;2022-10-03T16:40:51;14.60;99.90
11573;DHT22;5842;52.426;4.886;2022-10-03T16:43:19;14.50;99.90
11573;DHT22;5842;52.426;4.886;2022-10-03T16:45:48;14.40;99.90
11573;DHT22;5842;52.426;4.886;2022-10-03T16:48:21;14.40;99.90
11573;DHT22;5842;52.426;4.886;2022-10-03T16:51:14;14.30;99.90
11573;DHT22;5842;52.426;4.886;2022-10-03T16:53:43;14.30;99.90
11573;DHT22;5842;52.426;4.886;2022-10-03T16:56:14;14.20;99.90
11573;DHT22;5842;52.426;4.886;2022-10-03T16:58:47;14.20;99.90
11573;DHT22;5842;52.426;4.886;2022-10-03T17:01:24;14.10;99.90
11573;DHT22;5842;52.426;4.886;2022-10-03T17:03:57;14.10;99.90
11573;DHT22;5842;52.426;4.886;2022-10-03T17:06:30;14.00;99.90
11573;DHT22;5842;52.426;4.886;2022-10-03T17:09:02;13.90;99.90
11573;DHT22;5842;52.426;4.886;2022-10-03T17:11:34;13.90;99.90
11573;DHT22;5842;52.426;4.886;2022-10-03T17:14:05;13.80;99.90
11573;DHT22;5842;52.426;4.886;2022-10-03T17:16:36;13.80;99.90
11573;DHT22;5842;52.426;4.886;2022-10-03T17:19:18;13.70;99.90
11573;DHT22;5842;52.426;4.886;2022-10-03T17:21:51;13.60;99.90
11573;DHT22;5842;52.426;4.886;2022-10-03T17:24:36;13.60;99.90
11573;DHT22;5842;52.426;4.886;2022-10-03T17:27:13;13.50;99.90
11573;DHT22;5842;52.426;4.886;2022-10-03T17:29:45;13.40;99.90
11573;DHT22;5842;52.426;4.886;2022-10-03T17:32:19;13.20;99.90
11573;DHT22;5842;52.426;4.886;2022-10-03T17:34:57;13.20;99.90
11573;DHT22;5842;52.426;4.886;2022-10-03T17:37:54;13.10;99.90
11573;DHT22;5842;52.426;4.886;2022-10-03T17:40:34;13.00;99.90
11573;DHT22;5842;52.426;4.886;2022-10-03T17:43:15;12.90;99.90
11573;DHT22;5842;52.426;4.886;2022-10-03T17:45:46;12.90;99.90
11573;DHT22;5842;52.426;4.886;2022-10-03T17:48:19;12.80;99.90
11573;DHT22;5842;52.426;4.886;2022-10-03T17:50:54;12.80;99.90
11573;DHT22;5842;52.426;4.886;2022-10-03T17:53:27;12.80;99.90
11573;DHT22;5842;52.426;4.886;2022-10-03T17:55:57;12.80;99.90
11573;DHT22;5842;52.426;4.886;2022-10-03T17:58:27;12.70;99.90
11573;DHT22;5842;52.426;4.886;2022-10-03T18:01:07;12.60;99.90
11573;DHT22;5842;52.426;4.886;2022-10-03T18:03:40;12.50;99.90
11573;DHT22;5842;52.426;4.886;2022-10-03T18:06:34;12.50;99.90
11573;DHT22;5842;52.426;4.886;2022-10-03T18:09:09;12.40;99.90
11573;DHT22;5842;52.426;4.886;2022-10-03T18:11:48;12.30;99.90
11573;DHT22;5842;52.426;4.886;2022-10-03T18:17:12;12.20;99.90
11573;DHT22;5842;52.426;4.886;2022-10-03T18:19:53;12.10;99.90
11573;DHT22;5842;52.426;4.886;2022-10-03T18:22:29;12.10;99.90
11573;DHT22;5842;52.426;4.886;2022-10-03T18:25:08;12.10;99.90
11573;DHT22;5842;52.426;4.886;2022-10-03T18:28:09;12.10;99.90
11573;DHT22;5842;52.426;4.886;2022-10-03T18:30:42;12.20;99.90
11573;DHT22;5842;52.426;4.886;2022-10-03T18:33:13;12.20;99.90
11573;DHT22;5842;52.426;4.886;2022-10-03T18:35:43;12.20;99.90
11573;DHT22;5842;52.426;4.886;2022-10-03T18:38:12;12.20;99.90
11573;DHT22;5842;52.426;4.886;2022-10-03T18:40:49;12.30;99.90
11573;DHT22;5842;52.426;4.886;2022-10-03T18:43:26;12.30;99.90
11573;DHT22;5842;52.426;4.886;2022-10-03T18:48:56;12.40;99.90
11573;DHT22;5842;52.426;4.886;2022-10-03T18:51:30;12.40;99.90
11573;DHT22;5842;52.426;4.886;2022-10-03T18:54:01;12.50;99.90
11573;DHT22;5842;52.426;4.886;2022-10-03T18:56:30;12.50;99.90
11573;DHT22;5842;52.426;4.886;2022-10-03T18:59:14;12.60;99.90
11573;DHT22;5842;52.426;4.886;2022-10-03T19:01:49;12.60;99.90
11573;DHT22;5842;52.426;4.886;2022-10-03T19:04:27;12.60;99.90
11573;DHT22;5842;52.426;4.886;2022-10-03T19:06:57;12.50;99.90
11573;DHT22;5842;52.426;4.886;2022-10-03T19:09:26;12.60;99.90
11573;DHT22;5842;52.426;4.886;2022-10-03T19:12:03;12.60;99.90
11573;DHT22;5842;52.426;4.886;2022-10-03T19:14:39;12.50;99.90
11573;DHT22;5842;52.426;4.886;2022-10-03T19:17:20;12.50;99.90
11573;DHT22;5842;52.426;4.886;2022-10-03T19:19:52;12.50;99.90
11573;DHT22;5842;52.426;4.886;2022-10-03T19:22:26;12.50;99.90
11573;DHT22;5842;52.426;4.886;2022-10-03T19:24:57;12.50;99.90
11573;DHT22;5842;52.426;4.886;2022-10-03T19:27:39;12.50;99.90
11573;DHT22;5842;52.426;4.886;2022-10-03T19:30:07;12.50;99.90
11573;DHT22;5842;52.426;4.886;2022-10-03T19:32:46;12.50;99.90
11573;DHT22;5842;52.426;4.886;2022-10-03T19:35:16;12.50;99.90
11573;DHT22;5842;52.426;4.886;2022-10-03T19:37:48;12.50;99.90
11573;DHT22;5842;52.426;4.886;2022-10-03T19:40:39;12.40;99.90
11573;DHT22;5842;52.426;4.886;2022-10-03T19:43:30;12.40;99.90
11573;DHT22;5842;52.426;4.886;2022-10-03T19:46:11;12.40;99.90
11573;DHT22;5842;52.426;4.886;2022-10-03T19:48:45;12.40;99.90
11573;DHT22;5842;52.426;4.886;2022-10-03T19:51:15;12.40;99.90
11573;DHT22;5842;52.426;4.886;2022-10-03T19:53:45;12.40;99.90
11573;DHT22;5842;52.426;4.886;2022-10-03T19:56:14;12.30;99.90
11573;DHT22;5842;52.426;4.886;2022-10-03T19:58:46;12.30;99.90
11573;DHT22;5842;52.426;4.886;2022-10-03T20:01:16;12.40;99.90
11573;DHT22;5842;52.426;4.886;2022-10-03T20:03:47;12.30;99.90
11573;DHT22;5842;52.426;4.886;2022-10-03T20:06:19;12.30;99.90
11573;DHT22;5842;52.426;4.886;2022-10-03T20:08:52;12.30;99.90
11573;DHT22;5842;52.426;4.886;2022-10-03T20:11:29;12.30;99.90
11573;DHT22;5842;52.426;4.886;2022-10-03T20:14:05;12.30;99.90
11573;DHT22;5842;52.426;4.886;2022-10-03T20:16:39;12.30;99.90
11573;DHT22;5842;52.426;4.886;2022-10-03T20:19:09;12.30;99.90
11573;DHT22;5842;52.426;4.886;2022-10-03T20:21:38;12.30;99.90
11573;DHT22;5842;52.426;4.886;2022-10-03T20:24:14;12.30;99.90
11573;DHT22;5842;52.426;4.886;2022-10-03T20:26:50;12.30;99.90
11573;DHT22;5842;52.426;4.886;2022-10-03T20:29:28;12.30;99.90
11573;DHT22;5842;52.426;4.886;2022-10-03T20:31:58;12.30;99.90
11573;DHT22;5842;52.426;4.886;2022-10-03T20:34:27;12.20;99.90
11573;DHT22;5842;52.426;4.886;2022-10-03T20:37:02;12.20;99.90